CHB113 VHHH-ZGHA
Flight info
| Callsign | CHB113 |
|---|---|
| Flight time | 0h 33m |
| Altitude | 36100 |
| Route | BEKOL A461 YIN/K0885S1070 A461 MEXON |
| Aircraft | B78X/H-SDE1E2E3FGHIJ2J3J4J5M1RWXY/LB1D1 |
Departure
| Time | 2026-04-21 04:26 |
|---|---|
| Airport | Hong Kong International Airport (VHHH) |
Arrival
| Time | 2026-04-21 04:59 |
|---|---|
| Airport | Changsha Huanghua International Airport (ZGHA) |
| Time | Latitude | Longitude | Altitude | Speed | Heading |
|---|---|---|---|---|---|
| 2026-04-21 04:26 | 22.30665 | 113.88290 | 1796 ft | 151 kts | 246° |
| 2026-04-21 04:26 | 22.30227 | 113.87117 | 1943 ft | 187 kts | 246° |
| 2026-04-21 04:26 | 22.29760 | 113.85701 | 2300 ft | 218 kts | 247° |
| 2026-04-21 04:26 | 22.29286 | 113.84181 | 3384 ft | 208 kts | 248° |
| 2026-04-21 04:27 | 22.27921 | 113.79965 | 5855 ft | 218 kts | 248° |
| 2026-04-21 04:27 | 22.25786 | 113.73642 | 8938 ft | 237 kts | 235° |
| 2026-04-21 04:27 | 22.19530 | 113.71623 | 9009 ft | 259 kts | 163° |
| 2026-04-21 04:27 | 22.16971 | 113.78503 | 10788 ft | 311 kts | 58° |
| 2026-04-21 04:28 | 22.25447 | 113.79965 | 12457 ft | 372 kts | 345° |
| 2026-04-21 04:28 | 22.36471 | 113.78943 | 14856 ft | 403 kts | 351° |
| 2026-04-21 04:28 | 22.47918 | 113.77875 | 17368 ft | 420 kts | 352° |
| 2026-04-21 04:28 | 22.59772 | 113.76787 | 19484 ft | 435 kts | 353° |
| 2026-04-21 04:29 | 22.72039 | 113.75669 | 21356 ft | 449 kts | 353° |
| 2026-04-21 04:29 | 22.84689 | 113.74516 | 23000 ft | 462 kts | 352° |
| 2026-04-21 04:29 | 22.97647 | 113.73336 | 24413 ft | 471 kts | 352° |
| 2026-04-21 04:29 | 23.10818 | 113.72133 | 25728 ft | 477 kts | 352° |
| 2026-04-21 04:30 | 23.24131 | 113.70916 | 26999 ft | 483 kts | 352° |
| 2026-04-21 04:30 | 23.37533 | 113.69687 | 28217 ft | 489 kts | 351° |
| 2026-04-21 04:30 | 23.51193 | 113.68432 | 29393 ft | 496 kts | 351° |
| 2026-04-21 04:30 | 23.65045 | 113.67158 | 30348 ft | 503 kts | 351° |
| 2026-04-21 04:31 | 23.79084 | 113.65863 | 31157 ft | 508 kts | 351° |
| 2026-04-21 04:31 | 23.93069 | 113.64570 | 32463 ft | 503 kts | 351° |
| 2026-04-21 04:31 | 24.07004 | 113.63280 | 33694 ft | 500 kts | 351° |
| 2026-04-21 04:31 | 24.20839 | 113.61996 | 34836 ft | 496 kts | 350° |
| 2026-04-21 04:32 | 24.34367 | 113.60738 | 35932 ft | 492 kts | 350° |
| 2026-04-21 04:32 | 24.61799 | 113.58178 | 36003 ft | 493 kts | 350° |
| 2026-04-21 04:33 | 24.89143 | 113.55614 | 36005 ft | 492 kts | 350° |
| 2026-04-21 04:33 | 25.16455 | 113.53042 | 36018 ft | 492 kts | 350° |
| 2026-04-21 04:34 | 25.43795 | 113.50456 | 36032 ft | 494 kts | 350° |
| 2026-04-21 04:34 | 25.71188 | 113.47853 | 36028 ft | 494 kts | 349° |
| 2026-04-21 04:35 | 25.98761 | 113.46768 | 36045 ft | 498 kts | 355° |
| 2026-04-21 04:35 | 26.12558 | 113.47187 | 36040 ft | 483 kts | 354° |
| 2026-04-21 04:35 | 26.25911 | 113.47584 | 36054 ft | 482 kts | 354° |
| 2026-04-21 04:36 | 26.43599 | 113.48131 | 35926 ft | 476 kts | 354° |
| 2026-04-21 04:36 | 26.46919 | 113.48232 | 34972 ft | 482 kts | 354° |
| 2026-04-21 04:36 | 26.49151 | 113.48298 | 34592 ft | 481 kts | 354° |
| 2026-04-21 04:36 | 26.53633 | 113.48442 | 33638 ft | 483 kts | 354° |
| 2026-04-21 04:37 | 26.56996 | 113.48516 | 32847 ft | 483 kts | 351° |
| 2026-04-21 04:37 | 26.60339 | 113.48285 | 32134 ft | 481 kts | 347° |
| 2026-04-21 04:37 | 26.63631 | 113.47894 | 31380 ft | 484 kts | 347° |
| 2026-04-21 04:37 | 26.67057 | 113.47589 | 30605 ft | 492 kts | 351° |
| 2026-04-21 04:38 | 26.70446 | 113.47472 | 29767 ft | 496 kts | 352° |
| 2026-04-21 04:38 | 26.73887 | 113.47329 | 28932 ft | 493 kts | 351° |
| 2026-04-21 04:38 | 26.77292 | 113.47064 | 28135 ft | 489 kts | 349° |
| 2026-04-21 04:38 | 26.80678 | 113.46791 | 27348 ft | 487 kts | 351° |
| 2026-04-21 04:39 | 26.84061 | 113.46595 | 26543 ft | 486 kts | 352° |
| 2026-04-21 04:39 | 26.87431 | 113.46420 | 25779 ft | 484 kts | 352° |
| 2026-04-21 04:39 | 26.89656 | 113.46280 | 25270 ft | 483 kts | 352° |
| 2026-04-21 04:39 | 26.94138 | 113.45959 | 24246 ft | 481 kts | 352° |
| 2026-04-21 04:40 | 26.96351 | 113.45813 | 23734 ft | 481 kts | 353° |
| 2026-04-21 04:40 | 26.99694 | 113.45615 | 22921 ft | 479 kts | 353° |
| 2026-04-21 04:40 | 27.03010 | 113.45415 | 22159 ft | 475 kts | 353° |
| 2026-04-21 04:40 | 27.06299 | 113.45197 | 21415 ft | 471 kts | 353° |
| 2026-04-21 04:41 | 27.09559 | 113.44978 | 20679 ft | 467 kts | 353° |
| 2026-04-21 04:41 | 27.12793 | 113.44774 | 19937 ft | 464 kts | 353° |
| 2026-04-21 04:41 | 27.16007 | 113.44575 | 19213 ft | 460 kts | 354° |
| 2026-04-21 04:41 | 27.19198 | 113.44368 | 18493 ft | 457 kts | 354° |
| 2026-04-21 04:42 | 27.22365 | 113.44161 | 17737 ft | 454 kts | 354° |
| 2026-04-21 04:42 | 27.25496 | 113.43962 | 17031 ft | 448 kts | 354° |
| 2026-04-21 04:42 | 27.28587 | 113.43765 | 16362 ft | 442 kts | 354° |
| 2026-04-21 04:42 | 27.31638 | 113.43569 | 15681 ft | 437 kts | 354° |
| 2026-04-21 04:43 | 27.34653 | 113.43373 | 15003 ft | 432 kts | 354° |
| 2026-04-21 04:43 | 27.37643 | 113.43180 | 14332 ft | 427 kts | 354° |
| 2026-04-21 04:43 | 27.40555 | 113.42994 | 13669 ft | 423 kts | 354° |
| 2026-04-21 04:43 | 27.43474 | 113.42806 | 12993 ft | 417 kts | 354° |
| 2026-04-21 04:44 | 27.46351 | 113.42621 | 12345 ft | 411 kts | 354° |
| 2026-04-21 04:44 | 27.49187 | 113.42438 | 11713 ft | 405 kts | 354° |
| 2026-04-21 04:44 | 27.51972 | 113.42258 | 11231 ft | 396 kts | 354° |
| 2026-04-21 04:44 | 27.54663 | 113.42087 | 11055 ft | 378 kts | 354° |
| 2026-04-21 04:45 | 27.57227 | 113.41923 | 10914 ft | 361 kts | 353° |
| 2026-04-21 04:45 | 27.59678 | 113.41763 | 10762 ft | 345 kts | 353° |
| 2026-04-21 04:45 | 27.62019 | 113.41610 | 10627 ft | 330 kts | 353° |
| 2026-04-21 04:45 | 27.64262 | 113.41465 | 10492 ft | 316 kts | 353° |
| 2026-04-21 04:46 | 27.66426 | 113.41490 | 10255 ft | 309 kts | 4° |
| 2026-04-21 04:46 | 27.68538 | 113.41727 | 9974 ft | 301 kts | 360° |
| 2026-04-21 04:46 | 27.70607 | 113.41855 | 9672 ft | 295 kts | 359° |
| 2026-04-21 04:46 | 27.72635 | 113.42013 | 9393 ft | 292 kts | 1° |
| 2026-04-21 04:47 | 27.74669 | 113.42207 | 9118 ft | 295 kts | 1° |
| 2026-04-21 04:47 | 27.76713 | 113.42398 | 8848 ft | 295 kts | 1° |
| 2026-04-21 04:47 | 27.78750 | 113.42577 | 8571 ft | 291 kts | 1° |
| 2026-04-21 04:47 | 27.80758 | 113.42752 | 8293 ft | 290 kts | 1° |
| 2026-04-21 04:48 | 27.82757 | 113.42670 | 8030 ft | 286 kts | 345° |
| 2026-04-21 04:48 | 27.84728 | 113.42321 | 7762 ft | 286 kts | 349° |
| 2026-04-21 04:48 | 27.86685 | 113.42067 | 7499 ft | 279 kts | 343° |
| 2026-04-21 04:48 | 27.88360 | 113.41159 | 7246 ft | 266 kts | 317° |
| 2026-04-21 04:49 | 27.89528 | 113.39684 | 7027 ft | 243 kts | 297° |
| 2026-04-21 04:49 | 27.90419 | 113.38110 | 6801 ft | 233 kts | 297° |
| 2026-04-21 04:49 | 27.91281 | 113.36613 | 6664 ft | 221 kts | 297° |
| 2026-04-21 04:49 | 27.92103 | 113.35161 | 6547 ft | 220 kts | 296° |
| 2026-04-21 04:50 | 27.92933 | 113.33684 | 6442 ft | 224 kts | 296° |
| 2026-04-21 04:50 | 27.93775 | 113.32202 | 6327 ft | 223 kts | 297° |
| 2026-04-21 04:50 | 27.94871 | 113.31080 | 6037 ft | 235 kts | 334° |
| 2026-04-21 04:50 | 27.96549 | 113.31015 | 5942 ft | 246 kts | 17° |
| 2026-04-21 04:51 | 27.97921 | 113.32146 | 5861 ft | 250 kts | 55° |
| 2026-04-21 04:51 | 27.98427 | 113.33936 | 5683 ft | 234 kts | 98° |
| 2026-04-21 04:51 | 27.97843 | 113.35550 | 5664 ft | 220 kts | 139° |
| 2026-04-21 04:51 | 27.96554 | 113.36252 | 5650 ft | 200 kts | 181° |
| 2026-04-21 04:52 | 27.95324 | 113.35744 | 5621 ft | 193 kts | 223° |
| 2026-04-21 04:52 | 27.94770 | 113.34382 | 5598 ft | 198 kts | 256° |
| 2026-04-21 04:52 | 27.94700 | 113.32823 | 5623 ft | 199 kts | 265° |
| 2026-04-21 04:52 | 27.94688 | 113.31251 | 5624 ft | 201 kts | 264° |
| 2026-04-21 04:53 | 27.94625 | 113.29674 | 5392 ft | 198 kts | 262° |
| 2026-04-21 04:53 | 27.94546 | 113.28157 | 5162 ft | 189 kts | 261° |
| 2026-04-21 04:53 | 27.94476 | 113.26720 | 4927 ft | 179 kts | 262° |
| 2026-04-21 04:53 | 27.94640 | 113.25359 | 4656 ft | 176 kts | 286° |
| 2026-04-21 04:54 | 27.95377 | 113.24279 | 4408 ft | 179 kts | 316° |
| 2026-04-21 04:54 | 27.96548 | 113.23823 | 4264 ft | 183 kts | 347° |
| 2026-04-21 04:54 | 27.97826 | 113.23677 | 4048 ft | 185 kts | 354° |
| 2026-04-21 04:54 | 27.99062 | 113.23586 | 3831 ft | 182 kts | 356° |
| 2026-04-21 04:55 | 28.00325 | 113.23509 | 3580 ft | 179 kts | 357° |
| 2026-04-21 04:55 | 28.01526 | 113.23437 | 3356 ft | 177 kts | 358° |
| 2026-04-21 04:55 | 28.02745 | 113.23364 | 3121 ft | 175 kts | 358° |
| 2026-04-21 04:55 | 28.03955 | 113.23293 | 2888 ft | 173 kts | 358° |
| 2026-04-21 04:56 | 28.05141 | 113.23213 | 2659 ft | 170 kts | 358° |
| 2026-04-21 04:56 | 28.06314 | 113.23145 | 2435 ft | 167 kts | 359° |
| 2026-04-21 04:56 | 28.07464 | 113.23074 | 2205 ft | 164 kts | 358° |
| 2026-04-21 04:56 | 28.08553 | 113.23003 | 1999 ft | 162 kts | 358° |
| 2026-04-21 04:57 | 28.09700 | 113.22937 | 1773 ft | 160 kts | 357° |
| 2026-04-21 04:57 | 28.10764 | 113.22867 | 1559 ft | 157 kts | 356° |
| 2026-04-21 04:57 | 28.11889 | 113.22800 | 1347 ft | 158 kts | 356° |
| 2026-04-21 04:57 | 28.12946 | 113.22730 | 1132 ft | 159 kts | 355° |
| 2026-04-21 04:58 | 28.14081 | 113.22658 | 901 ft | 159 kts | 356° |
| 2026-04-21 04:58 | 28.15122 | 113.22598 | 689 ft | 157 kts | 356° |
| 2026-04-21 04:58 | 28.16247 | 113.22530 | 471 ft | 157 kts | 356° |
| 2026-04-21 04:58 | 28.17331 | 113.22464 | 268 ft | 157 kts | 357° |
| 2026-04-21 04:59 | 28.18303 | 113.22401 | 219 ft | 115 kts | 357° |
| 2026-04-21 04:59 | 28.18859 | 113.22367 | 220 ft | 52 kts | 357° |
| 2026-04-21 04:59 | 28.19096 | 113.22357 | 219 ft | 19 kts | 359° |
| 2026-04-21 04:59 | 28.19192 | 113.22351 | 220 ft | 12 kts | 355° |
| 2026-04-21 05:00 | 28.19269 | 113.22342 | 215 ft | 12 kts | 354° |
| 2026-04-21 05:00 | 28.19372 | 113.22334 | 218 ft | 17 kts | 356° |
| 2026-04-21 05:00 | 28.19621 | 113.22228 | 219 ft | 19 kts | 330° |
| 2026-04-21 05:01 | 28.19642 | 113.22215 | 220 ft | 2 kts | 332° |
| 2026-04-21 05:01 | 28.19654 | 113.22208 | 217 ft | 0 kts | 330° |
| 2026-04-21 05:02 | 28.19660 | 113.22204 | 217 ft | 4 kts | 330° |
| 2026-04-21 05:02 | 28.19713 | 113.22170 | 220 ft | 13 kts | 331° |
| 2026-04-21 05:02 | 28.19820 | 113.22118 | 220 ft | 19 kts | 345° |
| 2026-04-21 05:03 | 28.19944 | 113.22106 | 219 ft | 17 kts | 358° |
| 2026-04-21 05:03 | 28.20044 | 113.22093 | 221 ft | 11 kts | 333° |
| 2026-04-21 05:03 | 28.20072 | 113.22035 | 219 ft | 8 kts | 275° |
| 2026-04-21 05:03 | 28.20072 | 113.21964 | 217 ft | 13 kts | 267° |
| 2026-04-21 05:04 | 28.20065 | 113.21831 | 217 ft | 19 kts | 268° |
| 2026-04-21 05:04 | 28.20062 | 113.21778 | 218 ft | 0 kts | 264° |
| 2026-04-21 05:04 | 28.20062 | 113.21776 | 219 ft | 0 kts | 264° |
| 2026-04-21 05:05 | 28.20062 | 113.21773 | 219 ft | 1 kts | 263° |
| 2026-04-21 05:05 | 28.20056 | 113.21753 | 226 ft | 4 kts | 244° |
| 2026-04-21 05:05 | 28.20031 | 113.21730 | 224 ft | 6 kts | 204° |
| 2026-04-21 05:05 | 28.19979 | 113.21723 | 226 ft | 9 kts | 179° |
| 2026-04-21 05:06 | 28.19907 | 113.21727 | 222 ft | 11 kts | 177° |
| 2026-04-21 05:06 | 28.19832 | 113.21730 | 217 ft | 11 kts | 178° |
| 2026-04-21 05:06 | 28.19756 | 113.21735 | 222 ft | 11 kts | 175° |
| 2026-04-21 05:06 | 28.19679 | 113.21741 | 222 ft | 11 kts | 176° |
| 2026-04-21 05:07 | 28.19603 | 113.21745 | 218 ft | 11 kts | 177° |
| 2026-04-21 05:07 | 28.19530 | 113.21750 | 220 ft | 10 kts | 177° |
| 2026-04-21 05:07 | 28.19463 | 113.21754 | 220 ft | 9 kts | 176° |
| 2026-04-21 05:07 | 28.19407 | 113.21757 | 225 ft | 7 kts | 176° |
| 2026-04-21 05:08 | 28.19357 | 113.21761 | 218 ft | 8 kts | 176° |
| 2026-04-21 05:08 | 28.19297 | 113.21765 | 220 ft | 9 kts | 176° |
| 2026-04-21 05:08 | 28.19227 | 113.21769 | 220 ft | 11 kts | 176° |
| 2026-04-21 05:08 | 28.19147 | 113.21775 | 220 ft | 12 kts | 176° |
| 2026-04-21 05:09 | 28.19053 | 113.21781 | 220 ft | 15 kts | 176° |
| 2026-04-21 05:09 | 28.18947 | 113.21789 | 229 ft | 17 kts | 176° |
| 2026-04-21 05:09 | 28.18823 | 113.21797 | 218 ft | 19 kts | 177° |
| 2026-04-21 05:09 | 28.18705 | 113.21800 | 219 ft | 14 kts | 184° |
| 2026-04-21 05:10 | 28.18662 | 113.21759 | 217 ft | 5 kts | 255° |
| 2026-04-21 05:10 | 28.18657 | 113.21727 | 222 ft | 3 kts | 259° |
| 2026-04-21 05:10 | 28.18654 | 113.21706 | 217 ft | 2 kts | 262° |
| 2026-04-21 05:10 | 28.18652 | 113.21691 | 217 ft | 2 kts | 265° |
| 2026-04-21 05:11 | 28.18652 | 113.21663 | 216 ft | 6 kts | 272° |
| 2026-04-21 05:11 | 28.18672 | 113.21616 | 221 ft | 8 kts | 309° |
| 2026-04-21 05:11 | 28.18682 | 113.21603 | 221 ft | 0 kts | 310° |